Saint-Joseph-De-Sorel, Canada
Current Conditions -  °F | °C
As of 10:00 PM on Wednesday 22 Oct 2014 (Local Time) from CYRQ Reporting Station
Overcast Overcast  
Wind Chill: 35°   Ceiling: 21000
Heat Index: 43°   Visibility: 9mi
Dew Point: 34°   Wind: 16mph
Humidity: 70%   Direction: 40°NE
Pressure: 30.27"   Gusts: 22mph
Location:  46.03°N, 73.13°W
Report Text: CYRQ 230200Z AUTO 04014G19KT 9SM OVC210 06/01 A3027 RMK SLP252
Loading
Personal Weather Stations






























Interactive Weather Map
Tropical Storm Tracking
New forecast layout! Learn more

10-Day Weather Forecast

Advertisements
Track Severe Weather on mobile